Time;durP1;ratioP1;P1;durP2;ratioP2;P2;SDS_P1;SDS_P2;PMS_P1;PMS_P2;Temp;Humidity;BMP_temperature;BMP_pressure;BME280_temperature;BME280_humidity;BME280_pressure;Samples;Min_cycle;Max_cycle;Signal;HPM_P1;HPM_P2
2024/03/30 00:01:16;;;;;;;54.58;7.68;;;;;;;10.95;100.00;96275.03;5016482;28;20082;-61
2024/03/30 00:03:42;;;;;;;73.43;9.73;;;;;;;11.10;100.00;96278.06;5019222;28;20094;-60
2024/03/30 00:06:07;;;;;;;43.88;6.82;;;;;;;11.07;100.00;96274.63;5014195;28;20144;-63
2024/03/30 00:08:33;;;;;;;69.63;9.32;;;;;;;11.12;100.00;96273.63;5015663;28;20028;-63
2024/03/30 00:11:00;;;;;;;105.18;11.48;;;;;;;11.06;100.00;96275.56;5013278;28;20120;-61
2024/03/30 00:13:26;;;;;;;69.80;8.77;;;;;;;11.07;100.00;96273.81;5015746;28;20025;-61
2024/03/30 00:15:51;;;;;;;93.40;11.32;;;;;;;11.19;100.00;96277.75;5014353;28;20037;-60
2024/03/30 00:18:17;;;;;;;57.55;8.40;;;;;;;11.18;100.00;96276.06;5016523;28;20224;-61
2024/03/30 00:20:42;;;;;;;73.88;9.35;;;;;;;11.16;100.00;96270.03;5017910;28;20045;-62
2024/03/30 00:23:07;;;;;;;50.92;7.88;;;;;;;11.21;100.00;96265.53;5014382;28;21041;-60
2024/03/30 00:25:33;;;;;;;61.42;8.93;;;;;;;11.27;100.00;96262.72;5016853;28;20030;-63
2024/03/30 00:27:59;;;;;;;89.22;10.48;;;;;;;11.25;100.00;96259.31;5014529;28;20470;-61
2024/03/30 00:30:24;;;;;;;76.30;9.63;;;;;;;11.30;100.00;96270.44;5017181;28;20032;-62
2024/03/30 00:32:49;;;;;;;82.43;10.50;;;;;;;11.28;100.00;96272.22;5015765;28;20116;-61
2024/03/30 00:35:16;;;;;;;52.90;8.60;;;;;;;11.28;100.00;96279.22;5013640;28;20204;-61
2024/03/30 00:37:41;;;;;;;84.35;10.75;;;;;;;11.30;100.00;96286.06;5016096;28;20104;-61
2024/03/30 00:40:07;;;;;;;71.55;10.02;;;;;;;11.22;100.00;96288.06;5015632;28;20569;-60
2024/03/30 00:42:32;;;;;;;82.20;10.27;;;;;;;11.23;100.00;96284.56;5017111;28;20501;-61
2024/03/30 00:44:57;;;;;;;76.28;9.90;;;;;;;11.24;100.00;96283.63;5015411;28;20029;-60
2024/03/30 00:47:23;;;;;;;69.07;8.82;;;;;;;11.20;100.00;96287.25;5012748;28;20050;-62
2024/03/30 00:49:48;;;;;;;66.60;8.55;;;;;;;11.16;100.00;96286.50;5015230;28;20148;-59
2024/03/30 00:52:13;;;;;;;61.85;8.75;;;;;;;11.12;100.00;96291.84;5016220;28;20060;-61
2024/03/30 00:54:39;;;;;;;46.50;8.75;;;;;;;11.13;100.00;96290.97;5017117;28;20100;-60
2024/03/30 00:57:04;;;;;;;84.57;10.05;;;;;;;11.05;100.00;96291.19;5015231;28;20037;-62
2024/03/30 00:59:30;;;;;;;61.58;9.52;;;;;;;11.13;100.00;96302.22;5015650;28;20021;-60
2024/03/30 01:01:55;;;;;;;106.28;11.68;;;;;;;11.23;100.00;96300.16;5013377;28;20425;-60
2024/03/30 01:04:20;;;;;;;94.95;9.82;;;;;;;11.26;100.00;96300.06;5013825;28;20033;-60
2024/03/30 01:06:46;;;;;;;71.18;8.52;;;;;;;11.15;100.00;96294.34;5015027;28;20153;-60
2024/03/30 01:09:12;;;;;;;91.43;9.43;;;;;;;11.11;100.00;96295.34;5013498;28;20386;-61
2024/03/30 01:11:37;;;;;;;102.97;12.13;;;;;;;11.16;100.00;96296.06;5014562;28;20064;-60
2024/03/30 01:14:03;;;;;;;119.07;13.27;;;;;;;11.31;100.00;96300.75;5014993;28;20421;-61
2024/03/30 01:16:29;;;;;;;79.95;10.55;;;;;;;11.46;100.00;96288.97;5016221;28;20029;-61
2024/03/30 01:18:56;;;;;;;126.95;11.98;;;;;;;11.41;100.00;96295.25;5014152;28;20013;-60
2024/03/30 01:21:21;;;;;;;90.25;10.73;;;;;;;11.38;100.00;96291.00;5014660;28;20678;-60
2024/03/30 01:23:47;;;;;;;57.67;9.63;;;;;;;11.39;100.00;96284.88;5015660;28;20025;-60
2024/03/30 01:26:13;;;;;;;59.75;9.65;;;;;;;11.37;100.00;96291.91;5013904;28;20436;-61
2024/03/30 01:28:42;;;;;;;96.60;10.88;;;;;;;11.31;100.00;96302.50;5015597;28;20424;-60
2024/03/30 01:31:08;;;;;;;140.23;13.55;;;;;;;11.18;100.00;96296.88;5012485;28;20534;-62
2024/03/30 01:33:33;;;;;;;80.13;10.25;;;;;;;10.90;100.00;96300.34;5014013;28;20079;-60
2024/03/30 01:35:59;;;;;;;119.18;11.25;;;;;;;10.69;100.00;96302.72;5013872;28;20037;-61
2024/03/30 01:38:24;;;;;;;63.50;8.90;;;;;;;10.73;100.00;96296.53;5012510;28;20051;-62
2024/03/30 01:40:50;;;;;;;68.50;9.55;;;;;;;10.78;100.00;96301.59;5014172;28;20382;-61
2024/03/30 01:43:15;;;;;;;81.18;9.45;;;;;;;10.88;100.00;96297.78;5013801;28;20111;-59
2024/03/30 01:45:42;;;;;;;81.85;9.60;;;;;;;10.93;100.00;96293.31;5014827;28;20393;-58
2024/03/30 01:48:10;;;;;;;106.25;11.32;;;;;;;10.95;100.00;96298.44;5013724;28;20041;-61
2024/03/30 01:50:42;;;;;;;103.95;11.25;;;;;;;10.96;100.00;96299.31;5015272;28;20034;-62
2024/03/30 01:53:12;;;;;;;111.00;12.80;;;;;;;10.90;100.00;96303.81;5011719;28;20460;-61
2024/03/30 01:55:39;;;;;;;95.38;10.95;;;;;;;10.92;100.00;96295.97;5014127;28;20179;-60
2024/03/30 01:58:05;;;;;;;104.80;11.38;;;;;;;10.71;100.00;96303.53;5013591;28;20172;-62
2024/03/30 02:00:31;;;;;;;80.25;9.63;;;;;;;10.75;100.00;96299.09;5011336;28;20030;-60
2024/03/30 02:02:58;;;;;;;93.55;11.63;;;;;;;10.73;100.00;96295.69;5012197;28;20032;-61
2024/03/30 02:05:24;;;;;;;61.92;9.30;;;;;;;10.36;100.00;96288.06;5013853;28;22432;-61
2024/03/30 02:07:50;;;;;;;54.17;8.63;;;;;;;10.38;100.00;96296.69;5014329;28;20033;-62
2024/03/30 02:10:16;;;;;;;80.85;8.82;;;;;;;10.37;100.00;96299.34;5012812;28;20033;-60
2024/03/30 02:12:42;;;;;;;53.65;8.65;;;;;;;10.19;100.00;96296.38;5012793;28;20033;-60
2024/03/30 02:15:08;;;;;;;126.10;12.50;;;;;;;10.14;100.00;96299.09;5012518;28;20584;-60
2024/03/30 02:17:33;;;;;;;60.78;8.75;;;;;;;10.32;100.00;96289.06;5015753;28;20032;-59
2024/03/30 02:19:58;;;;;;;100.63;11.52;;;;;;;10.25;100.00;96285.78;5012773;28;20025;-62
2024/03/30 02:22:24;;;;;;;66.93;8.77;;;;;;;10.27;100.00;96284.03;5014944;28;20038;-60
2024/03/30 02:24:50;;;;;;;60.55;8.30;;;;;;;10.17;100.00;96292.97;5015118;28;20033;-61
2024/03/30 02:27:15;;;;;;;78.43;9.63;;;;;;;10.16;100.00;96296.47;5015547;28;20061;-60
2024/03/30 02:29:44;;;;;;;80.75;9.70;;;;;;;10.26;100.00;96304.84;5016016;28;20024;-61
2024/03/30 02:32:10;;;;;;;103.68;13.38;;;;;;;10.14;100.00;96293.06;5014430;28;20045;-61
2024/03/30 02:34:36;;;;;;;103.15;10.55;;;;;;;10.06;100.00;96306.25;5015752;28;20022;-62
2024/03/30 02:37:02;;;;;;;106.90;11.60;;;;;;;10.24;100.00;96302.28;5011398;28;20105;-61
2024/03/30 02:39:27;;;;;;;46.45;7.40;;;;;;;10.34;100.00;96296.81;5012500;28;20459;-60
2024/03/30 02:41:52;;;;;;;81.97;9.73;;;;;;;10.38;100.00;96299.28;5017023;28;20041;-60
2024/03/30 02:44:17;;;;;;;79.93;9.95;;;;;;;10.29;100.00;96302.16;5013199;28;20030;-59
2024/03/30 02:46:43;;;;;;;70.82;9.35;;;;;;;10.45;100.00;96301.72;5013226;28;20062;-59
2024/03/30 02:49:09;;;;;;;126.15;14.75;;;;;;;10.47;100.00;96305.97;5011936;28;20068;-60
2024/03/30 02:51:34;;;;;;;75.38;9.30;;;;;;;10.39;100.00;96298.38;5013794;28;20073;-59
2024/03/30 02:54:00;;;;;;;96.10;10.93;;;;;;;10.31;100.00;96297.75;5011368;28;20053;-58
2024/03/30 02:56:26;;;;;;;79.78;9.75;;;;;;;10.32;100.00;96298.63;5014179;28;20038;-61
2024/03/30 02:58:52;;;;;;;82.88;9.93;;;;;;;10.39;100.00;96294.94;5016622;28;20022;-61
2024/03/30 03:01:17;;;;;;;74.28;9.15;;;;;;;10.39;100.00;96302.72;5012642;28;20048;-61
2024/03/30 03:03:42;;;;;;;91.65;11.02;;;;;;;10.43;100.00;96293.94;5017258;28;20028;-60
2024/03/30 03:06:08;;;;;;;127.50;13.15;;;;;;;10.42;100.00;96287.03;5013500;28;20049;-60
2024/03/30 03:08:33;;;;;;;95.53;11.65;;;;;;;10.49;100.00;96286.00;5013867;28;20025;-60
2024/03/30 03:10:58;;;;;;;93.72;11.40;;;;;;;10.53;100.00;96298.00;5012720;28;20569;-60
2024/03/30 03:13:24;;;;;;;79.35;11.27;;;;;;;10.57;100.00;96280.56;5012210;28;20034;-60
2024/03/30 03:15:49;;;;;;;84.03;11.45;;;;;;;10.59;100.00;96285.72;5010689;28;20042;-59
2024/03/30 03:18:14;;;;;;;117.90;13.35;;;;;;;10.63;100.00;96284.72;5013061;28;20519;-61
2024/03/30 03:20:41;;;;;;;140.85;14.70;;;;;;;10.64;100.00;96282.09;5013963;28;20041;-61
2024/03/30 03:23:06;;;;;;;117.78;14.00;;;;;;;10.76;100.00;96283.44;5014739;28;20494;-60
2024/03/30 03:25:32;;;;;;;98.40;11.18;;;;;;;10.74;100.00;96280.06;5015846;28;20061;-60
2024/03/30 03:27:57;;;;;;;97.78;11.15;;;;;;;10.61;100.00;96289.13;5017130;28;20025;-60
2024/03/30 03:30:22;;;;;;;93.18;10.88;;;;;;;10.67;100.00;96281.13;5019477;28;20052;-60
2024/03/30 03:32:48;;;;;;;82.75;10.25;;;;;;;10.72;100.00;96286.19;5013848;28;20092;-60
2024/03/30 03:35:14;;;;;;;119.28;14.45;;;;;;;10.73;100.00;96280.94;5016048;28;20077;-60
2024/03/30 03:37:39;;;;;;;89.88;11.43;;;;;;;10.71;100.00;96287.94;5016565;28;20117;-61
2024/03/30 03:40:05;;;;;;;114.55;13.77;;;;;;;10.70;100.00;96288.84;5011794;28;20526;-62
2024/03/30 03:42:30;;;;;;;69.90;11.48;;;;;;;10.66;100.00;96289.84;5015629;28;20570;-60
2024/03/30 03:44:56;;;;;;;101.65;11.20;;;;;;;10.58;100.00;96281.41;5017771;28;20033;-61
2024/03/30 03:47:21;;;;;;;73.97;10.65;;;;;;;10.64;100.00;96289.88;5014052;28;20045;-62
2024/03/30 03:49:46;;;;;;;88.68;11.05;;;;;;;10.76;100.00;96286.03;5017490;28;20072;-60
2024/03/30 03:52:12;;;;;;;132.77;13.95;;;;;;;10.80;100.00;96290.25;5017447;28;20041;-61
2024/03/30 03:54:37;;;;;;;108.30;11.07;;;;;;;10.81;100.00;96284.13;5016345;28;20025;-61
2024/03/30 03:57:03;;;;;;;116.90;11.93;;;;;;;10.76;100.00;96286.03;5013632;28;20029;-60
2024/03/30 03:59:28;;;;;;;102.22;11.68;;;;;;;10.77;100.00;96279.09;5015342;28;20045;-60
2024/03/30 04:01:53;;;;;;;62.10;9.23;;;;;;;10.82;100.00;96279.78;5016296;28;20550;-63
2024/03/30 04:04:19;;;;;;;78.05;10.13;;;;;;;10.86;100.00;96283.13;5018601;28;20033;-60
2024/03/30 04:06:44;;;;;;;97.00;11.70;;;;;;;10.83;100.00;96278.88;5018502;28;20053;-58
2024/03/30 04:09:09;;;;;;;112.97;13.38;;;;;;;10.82;100.00;96274.59;5015867;28;20185;-61
2024/03/30 04:11:35;;;;;;;108.97;12.45;;;;;;;10.90;100.00;96272.59;5013884;28;20041;-61
2024/03/30 04:14:00;;;;;;;78.20;10.77;;;;;;;10.91;100.00;96268.25;5012735;28;20030;-60
2024/03/30 04:16:26;;;;;;;70.10;11.05;;;;;;;10.86;100.00;96254.53;5018703;28;20095;-61
2024/03/30 04:18:52;;;;;;;70.78;11.00;;;;;;;10.81;100.00;96260.72;5020107;28;20029;-59
2024/03/30 04:21:17;;;;;;;135.05;15.35;;;;;;;10.84;100.00;96264.97;5014433;28;20061;-59
2024/03/30 04:23:43;;;;;;;80.97;11.43;;;;;;;10.89;100.00;96259.66;5013581;28;20510;-58
2024/03/30 04:26:10;;;;;;;124.75;13.25;;;;;;;10.89;100.00;96254.44;5012159;28;20041;-59
2024/03/30 04:28:35;;;;;;;87.70;11.35;;;;;;;10.87;100.00;96254.50;5014818;28;20118;-58
2024/03/30 04:31:04;;;;;;;99.20;10.57;;;;;;;10.87;100.00;96254.50;5015046;28;20173;-57
2024/03/30 04:33:29;;;;;;;95.43;11.60;;;;;;;10.83;100.00;96252.88;5015642;28;20027;-60
2024/03/30 04:35:56;;;;;;;100.28;11.15;;;;;;;10.79;100.00;96262.53;5012526;28;20052;-61
2024/03/30 04:38:22;;;;;;;99.95;11.68;;;;;;;10.80;100.00;96261.63;5013904;28;20038;-61
2024/03/30 04:41:00;;;;;;;71.60;10.05;;;;;;;10.87;100.00;96269.25;5015549;28;20333;-61
2024/03/30 04:43:26;;;;;;;91.28;11.57;;;;;;;10.89;100.00;96264.84;5015669;28;20064;-59
2024/03/30 04:45:51;;;;;;;85.88;12.05;;;;;;;10.91;100.00;96260.47;5012964;28;20478;-59
2024/03/30 04:48:18;;;;;;;126.78;14.23;;;;;;;10.87;100.00;96257.09;5015925;28;20091;-60
2024/03/30 04:50:43;;;;;;;115.72;12.20;;;;;;;10.86;100.00;96254.53;5011502;28;20037;-60
2024/03/30 04:53:09;;;;;;;131.00;13.70;;;;;;;10.93;100.00;96256.91;5016159;28;20031;-61
2024/03/30 04:55:35;;;;;;;102.35;12.93;;;;;;;10.97;100.00;96252.44;5016376;28;20045;-60
2024/03/30 04:58:00;;;;;;;92.10;11.18;;;;;;;11.02;100.00;96257.50;5016409;28;20234;-61
2024/03/30 05:00:26;;;;;;;95.60;10.80;;;;;;;11.05;100.00;96252.19;5013215;28;20039;-60
2024/03/30 05:02:51;;;;;;;91.78;11.18;;;;;;;10.99;100.00;96250.63;5015625;28;20072;-59
2024/03/30 05:05:16;;;;;;;139.98;14.02;;;;;;;11.01;100.00;96255.78;5012301;28;20562;-61
2024/03/30 05:07:41;;;;;;;95.28;11.95;;;;;;;10.96;100.00;96250.75;5015007;28;20074;-60
2024/03/30 05:10:07;;;;;;;130.38;13.32;;;;;;;11.01;100.00;96258.38;5013950;28;20095;-61
2024/03/30 05:12:33;;;;;;;79.90;11.48;;;;;;;11.01;100.00;96258.38;5014438;28;20082;-60
2024/03/30 05:14:59;;;;;;;93.88;11.85;;;;;;;11.10;100.00;96245.06;5016195;28;20079;-61
2024/03/30 05:17:24;;;;;;;107.72;13.27;;;;;;;11.15;100.00;96252.72;5014104;28;20168;-61
2024/03/30 05:22:34;;;;;;;94.47;11.75;;;;;;;11.11;100.00;96230.31;5013791;28;20121;-58
2024/03/30 05:24:59;;;;;;;89.97;10.30;;;;;;;11.11;100.00;96225.97;5014252;28;20116;-59
2024/03/30 05:27:25;;;;;;;111.53;12.85;;;;;;;11.10;100.00;96220.81;5012704;28;20600;-60
2024/03/30 05:29:50;;;;;;;85.43;11.88;;;;;;;11.05;100.00;96216.63;5014853;28;20047;-60
2024/03/30 05:32:15;;;;;;;111.07;12.82;;;;;;;11.11;100.00;96227.72;5017170;28;20068;-59
2024/03/30 05:34:41;;;;;;;93.55;11.55;;;;;;;11.14;100.00;96228.44;5015364;28;20029;-62
2024/03/30 05:37:06;;;;;;;101.63;12.73;;;;;;;11.19;100.00;96228.31;5015060;28;20037;-59
2024/03/30 05:39:31;;;;;;;83.47;12.07;;;;;;;11.15;100.00;96227.56;5014962;28;20029;-60
2024/03/30 05:41:57;;;;;;;71.50;9.80;;;;;;;11.23;100.00;96219.50;5015719;28;20029;-59
2024/03/30 05:44:22;;;;;;;125.10;13.63;;;;;;;11.30;100.00;96218.41;5014379;28;20029;-60
2024/03/30 05:46:47;;;;;;;102.57;10.43;;;;;;;11.36;100.00;96219.91;5016145;28;20039;-59
2024/03/30 05:49:13;;;;;;;128.52;15.27;;;;;;;11.42;100.00;96226.66;5013525;28;20045;-62
2024/03/30 05:51:38;;;;;;;114.50;12.70;;;;;;;11.56;100.00;96231.38;5014774;28;20049;-59
2024/03/30 05:54:03;;;;;;;90.03;11.70;;;;;;;11.69;100.00;96242.22;5014697;28;20026;-60
2024/03/30 05:56:28;;;;;;;82.30;11.70;;;;;;;11.70;100.00;96234.31;5011004;28;20481;-59
2024/03/30 05:58:54;;;;;;;83.07;11.48;;;;;;;11.52;100.00;96233.25;5014896;28;20135;-61
2024/03/30 06:01:19;;;;;;;102.40;12.38;;;;;;;11.67;100.00;96242.28;5011485;28;20049;-61
2024/03/30 06:03:45;;;;;;;101.53;11.10;;;;;;;11.76;100.00;96243.69;5014638;28;20114;-60
2024/03/30 06:06:10;;;;;;;134.50;14.25;;;;;;;11.95;100.00;96243.03;5013705;28;20482;-60
2024/03/30 06:08:36;;;;;;;113.97;13.20;;;;;;;12.08;100.00;96249.50;5014735;28;20029;-62
2024/03/30 06:11:01;;;;;;;89.88;11.20;;;;;;;12.15;100.00;96247.50;5016369;28;20589;-60
2024/03/30 06:13:27;;;;;;;116.22;12.93;;;;;;;12.22;100.00;96242.91;5015726;28;20038;-59
2024/03/30 06:16:05;;;;;;;72.70;11.38;;;;;;;12.49;100.00;96247.97;5017509;28;20073;-59
2024/03/30 06:18:30;;;;;;;99.78;13.32;;;;;;;12.67;100.00;96249.00;5013239;28;20026;-60
2024/03/30 06:20:55;;;;;;;96.40;12.48;;;;;;;12.75;100.00;96251.31;5009856;28;20034;-56
2024/03/30 06:23:21;;;;;;;113.10;15.35;;;;;;;12.80;100.00;96254.56;5013507;28;20106;-61
2024/03/30 06:25:46;;;;;;;88.65;11.63;;;;;;;12.77;100.00;96252.09;5012774;28;20043;-60
2024/03/30 06:28:11;;;;;;;123.88;14.52;;;;;;;13.04;100.00;96245.81;5015116;28;20026;-60
2024/03/30 06:30:37;;;;;;;114.15;12.63;;;;;;;13.15;100.00;96243.59;5011267;28;20040;-61
2024/03/30 06:33:02;;;;;;;62.85;11.30;;;;;;;12.87;100.00;96239.50;5013160;28;20037;-63
2024/03/30 06:35:30;;;;;;;105.53;13.65;;;;;;;13.12;100.00;96239.38;5015590;28;20563;-59
2024/03/30 06:37:55;;;;;;;92.03;12.18;;;;;;;13.41;100.00;96229.44;5015656;28;20033;-61
2024/03/30 06:45:48;;;;;;;86.13;12.77;;;;;;;14.14;100.00;96229.81;5016166;28;20064;-59
2024/03/30 06:48:13;;;;;;;130.68;15.95;;;;;;;14.38;100.00;96219.97;5012384;28;20052;-60
2024/03/30 06:50:39;;;;;;;109.70;12.73;;;;;;;14.87;100.00;96218.53;5015094;28;20041;-61
2024/03/30 06:53:04;;;;;;;87.03;11.77;;;;;;;15.97;95.06;96217.38;5018537;28;20025;-60
2024/03/30 06:55:29;;;;;;;113.50;13.65;;;;;;;17.31;80.50;96219.63;5011834;28;20425;-61
2024/03/30 06:57:55;;;;;;;66.18;11.20;;;;;;;18.71;67.85;96207.59;5015493;28;20385;-60
2024/03/30 07:00:20;;;;;;;114.55;13.55;;;;;;;19.45;58.84;96214.22;5015307;28;20033;-58
2024/03/30 07:02:45;;;;;;;91.50;12.23;;;;;;;19.82;53.10;96211.69;5017143;28;20044;-61
2024/03/30 07:05:11;;;;;;;90.50;11.55;;;;;;;20.04;52.79;96207.56;5014825;28;20033;-60
2024/03/30 07:07:36;;;;;;;79.70;11.18;;;;;;;21.26;49.42;96205.00;5020435;28;20080;-61
2024/03/30 07:10:02;;;;;;;105.97;12.10;;;;;;;22.47;45.90;96205.44;5019781;28;20052;-62
2024/03/30 07:12:27;;;;;;;126.88;13.43;;;;;;;24.03;43.68;96195.28;5011857;28;20037;-60
2024/03/30 07:14:52;;;;;;;81.72;10.75;;;;;;;24.68;40.61;96191.41;5017250;28;20033;-63
2024/03/30 07:17:18;;;;;;;106.53;11.95;;;;;;;26.35;38.46;96183.28;5014028;28;20037;-62
2024/03/30 07:19:43;;;;;;;87.85;11.50;;;;;;;28.09;36.39;96181.19;5016406;28;20589;-63
2024/03/30 07:22:09;;;;;;;87.85;10.85;;;;;;;29.26;33.20;96190.38;5017421;28;20045;-63
2024/03/30 07:24:34;;;;;;;67.70;12.15;;;;;;;29.79;32.64;96189.16;5015210;28;20034;-63
2024/03/30 07:26:59;;;;;;;84.60;10.93;;;;;;;30.34;31.57;96187.47;5016718;28;20029;-63
2024/03/30 07:29:25;;;;;;;102.38;13.60;;;;;;;32.04;30.00;96184.03;5016838;28;20492;-62
2024/03/30 07:31:50;;;;;;;50.85;10.52;;;;;;;33.02;29.07;96187.47;5016163;28;20560;-60
2024/03/30 07:34:15;;;;;;;91.15;13.10;;;;;;;32.12;28.98;96191.16;5015147;28;20018;-59
2024/03/30 07:36:40;;;;;;;81.10;13.20;;;;;;;30.30;30.79;96201.41;5014151;28;20065;-61
2024/03/30 07:39:07;;;;;;;78.03;12.15;;;;;;;33.93;27.67;96195.03;5017955;28;20029;-63
2024/03/30 07:41:32;;;;;;;74.10;11.95;;;;;;;34.34;27.18;96196.94;5014722;28;20520;-65
2024/03/30 07:43:57;;;;;;;75.47;12.18;;;;;;;32.32;28.00;96187.91;5016833;28;20029;-60
2024/03/30 07:46:23;;;;;;;84.90;13.80;;;;;;;34.06;26.55;96194.28;5016575;28;20029;-60
2024/03/30 07:48:48;;;;;;;70.90;11.57;;;;;;;34.06;25.77;96191.59;5017754;28;20037;-61
2024/03/30 07:51:13;;;;;;;70.50;11.07;;;;;;;35.61;24.62;96200.13;5014875;28;20048;-63
2024/03/30 07:53:39;;;;;;;74.38;11.88;;;;;;;32.58;26.30;96198.16;5015748;28;20087;-61
2024/03/30 07:56:04;;;;;;;60.97;12.00;;;;;;;34.90;22.57;96197.78;5016184;28;20041;-63
2024/03/30 07:58:29;;;;;;;96.25;12.90;;;;;;;36.40;21.14;96193.97;5016666;28;20032;-60
2024/03/30 08:00:56;;;;;;;61.55;10.20;;;;;;;32.40;23.75;96189.66;5018068;28;20102;-60
2024/03/30 08:03:21;;;;;;;81.07;12.32;;;;;;;35.04;21.39;96187.00;5013660;28;20114;-61
2024/03/30 08:05:59;;;;;;;80.15;11.07;;;;;;;32.71;23.44;96189.41;5016129;28;20072;-64
2024/03/30 08:08:24;;;;;;;70.35;12.32;;;;;;;34.64;20.82;96183.19;5015850;28;20088;-60
2024/03/30 08:10:50;;;;;;;66.47;10.52;;;;;;;34.34;22.38;96191.56;5015448;28;20045;-61
2024/03/30 08:13:15;;;;;;;62.85;11.88;;;;;;;37.13;19.59;96186.53;5016500;28;20102;-61
2024/03/30 08:15:42;;;;;;;69.78;10.45;;;;;;;36.35;19.78;96181.09;5014573;28;20046;-59
2024/03/30 08:18:07;;;;;;;67.82;11.13;;;;;;;37.00;20.01;96181.22;5015842;28;20056;-62
2024/03/30 08:20:32;;;;;;;104.10;14.77;;;;;;;37.35;19.91;96182.63;5014585;28;20393;-62
2024/03/30 08:22:57;;;;;;;68.57;11.43;;;;;;;34.35;21.56;96190.53;5017296;28;20096;-61
2024/03/30 08:25:23;;;;;;;80.40;12.50;;;;;;;36.33;20.09;96177.75;5012359;28;20112;-63
2024/03/30 08:27:48;;;;;;;41.38;8.40;;;;;;;34.46;21.05;96188.25;5014924;28;20585;-61
2024/03/30 08:30:14;;;;;;;77.63;12.23;;;;;;;37.08;19.35;96183.66;5015410;28;20030;-62
2024/03/30 08:32:39;;;;;;;64.03;9.70;;;;;;;36.80;18.90;96187.56;5013834;28;20464;-61
2024/03/30 08:35:05;;;;;;;62.53;10.00;;;;;;;37.00;19.16;96179.31;5014072;28;20486;-62
2024/03/30 08:37:30;;;;;;;85.32;10.65;;;;;;;34.56;20.28;96183.34;5015157;28;20287;-62
2024/03/30 08:39:55;;;;;;;57.63;9.73;;;;;;;36.54;19.28;96174.97;5016499;28;20030;-61
2024/03/30 08:42:21;;;;;;;70.47;11.00;;;;;;;36.16;19.10;96174.72;5016212;28;20085;-60
2024/03/30 08:44:47;;;;;;;65.45;10.40;;;;;;;37.23;18.66;96164.41;5014411;28;20275;-60
2024/03/30 08:47:12;;;;;;;66.30;9.50;;;;;;;35.83;20.31;96162.09;5018273;28;20115;-62
2024/03/30 08:49:38;;;;;;;53.90;8.80;;;;;;;34.87;19.80;96160.38;5014300;28;20040;-63
2024/03/30 08:52:03;;;;;;;59.92;10.07;;;;;;;36.43;20.47;96152.97;5015698;28;20132;-62
2024/03/30 08:54:28;;;;;;;82.68;12.50;;;;;;;36.16;21.70;96161.19;5014840;28;20451;-62
2024/03/30 08:56:54;;;;;;;58.92;9.23;;;;;;;35.86;18.96;96166.22;5015919;28;20634;-64
2024/03/30 08:59:19;;;;;;;69.90;10.23;;;;;;;35.37;19.80;96161.06;5013825;28;20575;-64
2024/03/30 09:01:45;;;;;;;74.87;10.53;;;;;;;34.37;22.59;96164.16;5015459;28;20287;-62
2024/03/30 09:04:10;;;;;;;35.47;7.28;;;;;;;33.99;20.29;96160.03;5014976;28;20267;-65
2024/03/30 09:06:36;;;;;;;51.83;8.40;;;;;;;33.61;20.16;96161.25;5013375;28;20045;-63
2024/03/30 09:09:01;;;;;;;60.40;9.13;;;;;;;35.36;19.92;96152.13;5015856;28;20044;-63
2024/03/30 09:11:26;;;;;;;80.60;11.60;;;;;;;36.72;18.98;96155.34;5016218;28;20280;-62
2024/03/30 09:13:52;;;;;;;57.03;8.48;;;;;;;35.85;19.01;96142.94;5018376;28;20029;-63
2024/03/30 09:16:17;;;;;;;58.22;9.45;;;;;;;33.10;21.27;96154.22;5014349;28;20033;-59
2024/03/30 09:18:43;;;;;;;60.65;10.02;;;;;;;34.91;21.15;96148.16;5018550;28;20504;-61
2024/03/30 09:21:09;;;;;;;61.17;9.05;;;;;;;34.85;19.47;96154.38;5014996;28;20077;-62
2024/03/30 09:23:34;;;;;;;84.10;11.35;;;;;;;36.09;19.77;96146.81;5012830;28;20034;-63
2024/03/30 09:26:00;;;;;;;51.50;11.95;;;;;;;33.94;19.05;96145.47;5016088;28;20339;-63
2024/03/30 09:28:25;;;;;;;66.28;9.82;;;;;;;33.03;20.18;96147.94;5014389;28;20157;-62
2024/03/30 09:30:51;;;;;;;52.05;9.73;;;;;;;33.25;21.24;96154.13;5013559;28;20038;-62
2024/03/30 09:33:17;;;;;;;66.80;8.88;;;;;;;31.70;22.27;96151.25;5018146;28;20029;-61
2024/03/30 09:35:42;;;;;;;75.20;10.23;;;;;;;31.01;23.93;96138.78;5013244;28;20053;-62
2024/03/30 09:38:07;;;;;;;48.08;8.07;;;;;;;32.34;21.23;96138.28;5016348;28;20033;-63
2024/03/30 09:40:33;;;;;;;101.18;13.02;;;;;;;32.00;23.09;96152.31;5014358;28;20064;-62
2024/03/30 09:42:59;;;;;;;58.03;9.63;;;;;;;31.88;22.11;96149.25;5015654;28;20029;-62
2024/03/30 09:45:26;;;;;;;77.72;10.05;;;;;;;30.66;23.33;96131.97;5011728;28;20037;-62
2024/03/30 09:47:55;;;;;;;57.50;9.23;;;;;;;30.19;22.72;96140.97;5014506;28;20643;-63
2024/03/30 09:50:23;;;;;;;45.80;8.15;;;;;;;31.58;21.94;96133.94;5016653;28;20532;-62
2024/03/30 09:52:51;;;;;;;51.97;8.48;;;;;;;32.52;20.90;96133.53;5017655;28;20073;-62
2024/03/30 09:55:17;;;;;;;66.50;10.20;;;;;;;33.81;20.97;96138.16;5013753;28;20500;-65
2024/03/30 09:57:48;;;;;;;48.55;8.30;;;;;;;33.48;20.96;96126.94;5016227;28;20133;-62
2024/03/30 10:00:15;;;;;;;58.45;9.10;;;;;;;32.36;22.54;96129.19;5015891;28;20025;-61
2024/03/30 10:02:41;;;;;;;68.63;10.10;;;;;;;35.09;20.15;96121.56;5008346;28;20029;-63
2024/03/30 10:05:09;;;;;;;59.42;8.82;;;;;;;34.28;20.73;96114.97;5016005;28;20036;-63
2024/03/30 10:07:37;;;;;;;78.32;11.05;;;;;;;32.79;21.42;96123.88;5013242;28;20061;-62
2024/03/30 10:10:10;;;;;;;76.50;10.68;;;;;;;33.18;22.76;96127.13;5015985;28;20588;-61
2024/03/30 10:12:50;;;;;;;72.57;10.52;;;;;;;33.40;20.92;96110.09;5020539;28;20312;-62
2024/03/30 10:15:21;;;;;;;51.97;8.45;;;;;;;31.58;21.46;96117.00;5013924;28;20038;-61
2024/03/30 10:17:46;;;;;;;49.45;8.45;;;;;;;30.39;23.05;96125.28;5014451;28;20529;-61
2024/03/30 10:20:11;;;;;;;58.83;8.40;;;;;;;29.32;23.43;96114.72;5012271;28;20121;-62
2024/03/30 10:22:37;;;;;;;81.53;9.95;;;;;;;31.01;23.63;96107.44;5011392;28;20018;-63
2024/03/30 10:25:03;;;;;;;59.13;9.27;;;;;;;31.12;23.23;96099.94;5016121;28;20026;-63
2024/03/30 10:27:28;;;;;;;104.55;12.95;;;;;;;31.47;22.06;96102.19;5012738;28;20104;-62
2024/03/30 10:29:53;;;;;;;71.88;10.38;;;;;;;31.28;23.73;96107.03;5015307;28;20504;-64
2024/03/30 10:32:19;;;;;;;61.70;8.75;;;;;;;31.49;21.92;96109.03;5017187;28;20108;-62
2024/03/30 10:34:45;;;;;;;60.25;8.55;;;;;;;30.86;21.99;96099.34;5013360;28;20492;-63
2024/03/30 10:37:10;;;;;;;84.22;10.48;;;;;;;31.39;21.81;96092.38;5017553;28;20492;-61
2024/03/30 10:39:35;;;;;;;80.15;10.32;;;;;;;30.42;22.42;96105.34;5020562;28;20574;-64
2024/03/30 10:42:01;;;;;;;53.00;7.93;;;;;;;29.16;23.24;96109.38;5020912;28;20046;-62
2024/03/30 10:44:28;;;;;;;84.50;10.80;;;;;;;27.60;24.70;96099.81;5017833;28;20042;-61
2024/03/30 10:46:54;;;;;;;69.22;9.45;;;;;;;28.18;25.12;96102.75;5021174;28;20515;-62
2024/03/30 10:49:20;;;;;;;54.33;8.68;;;;;;;27.64;25.49;96095.88;5020302;28;20025;-62
2024/03/30 10:51:47;;;;;;;72.63;10.23;;;;;;;27.49;25.38;96092.06;5021023;28;20271;-61
2024/03/30 10:54:19;;;;;;;71.40;9.75;;;;;;;26.86;25.49;96092.97;5018959;28;20033;-63
2024/03/30 10:56:47;;;;;;;59.90;9.55;;;;;;;27.24;25.52;96090.09;5019259;28;20525;-64
2024/03/30 10:59:13;;;;;;;85.43;14.05;;;;;;;27.19;25.40;96089.75;5022847;28;20025;-62
2024/03/30 11:01:39;;;;;;;101.13;10.80;;;;;;;27.15;25.75;96088.38;5013820;28;20045;-65
2024/03/30 11:04:05;;;;;;;60.80;9.30;;;;;;;26.96;25.64;96087.59;5017230;28;20064;-63
2024/03/30 11:06:31;;;;;;;85.47;11.38;;;;;;;27.17;26.22;96083.75;5017715;28;20085;-62
2024/03/30 11:08:58;;;;;;;73.97;9.50;;;;;;;28.11;25.85;96079.50;5020766;28;20079;-64
2024/03/30 11:11:24;;;;;;;62.50;8.88;;;;;;;28.44;25.75;96088.47;5015804;28;20128;-62
2024/03/30 11:13:49;;;;;;;78.80;9.10;;;;;;;27.65;25.01;96086.84;5017640;28;20124;-64